createdAt,value
2019-05-16T00:04:59.221Z,96.70
2019-05-16T00:10:04.893Z,96.70
2019-05-16T00:15:10.565Z,98.70
2019-05-16T00:20:15.967Z,97.60
2019-05-16T00:25:28.670Z,96.40
2019-05-16T00:30:33.581Z,95.90
2019-05-16T00:35:39.450Z,95.80
2019-05-16T00:40:44.502Z,96.40
2019-05-16T00:45:49.615Z,97.40
2019-05-16T00:50:54.809Z,97.60
2019-05-16T00:56:00.757Z,97.00
2019-05-16T01:01:08.351Z,97.70
2019-05-16T01:06:19.119Z,98.60
2019-05-16T01:11:19.805Z,98.70
2019-05-16T01:16:24.737Z,97.80
2019-05-16T01:21:29.991Z,98.90
2019-05-16T01:26:35.517Z,98.30
2019-05-16T01:31:42.311Z,97.50
2019-05-16T01:36:48.589Z,97.80
2019-05-16T01:41:53.661Z,98.30
2019-05-16T01:46:58.873Z,97.60
2019-05-16T01:52:03.805Z,97.50
2019-05-16T01:57:09.080Z,97.70
2019-05-16T02:02:14.035Z,98.20
2019-05-16T02:07:19.383Z,99.90
2019-05-16T02:12:25.028Z,98.80
2019-05-16T02:17:29.954Z,99.10
2019-05-16T02:22:35.317Z,98.10
2019-05-16T02:27:41.096Z,99.90
2019-05-16T02:32:46.266Z,99.90
2019-05-16T02:37:55.093Z,99.90
2019-05-16T02:43:01.750Z,99.90
2019-05-16T02:48:05.554Z,99.90
2019-05-16T02:53:12.773Z,99.90
2019-05-16T02:58:17.188Z,99.90
2019-05-16T03:03:22.412Z,99.90
2019-05-16T03:08:27.683Z,99.90
2019-05-16T03:13:35.551Z,99.90
2019-05-16T03:18:41.626Z,99.90
2019-05-16T03:23:46.978Z,99.90
2019-05-16T03:28:52.438Z,99.90
2019-05-16T03:34:01.426Z,99.90
2019-05-16T03:39:05.761Z,99.90
2019-05-16T03:44:11.442Z,99.90
2019-05-16T03:49:16.454Z,99.90
2019-05-16T03:54:21.825Z,99.90
2019-05-16T03:59:26.817Z,99.90
2019-05-16T04:04:31.872Z,99.90
2019-05-16T04:09:40.881Z,99.90
2019-05-16T04:14:53.644Z,99.90
2019-05-16T04:20:01.720Z,99.90
2019-05-16T04:25:06.098Z,99.90
2019-05-16T04:30:12.209Z,99.90
2019-05-16T04:35:17.419Z,99.90
2019-05-16T04:40:22.758Z,99.90
2019-05-16T04:45:27.978Z,99.90
2019-05-16T05:06:35.237Z,99.90
2019-05-16T05:11:41.713Z,99.90
2019-05-16T05:16:46.614Z,99.90
2019-05-16T05:21:51.650Z,99.90
2019-05-16T05:26:56.617Z,99.90
2019-05-16T05:32:04.511Z,99.90
2019-05-16T05:37:12.240Z,99.90
2019-05-16T05:42:15.535Z,99.90
2019-05-16T05:47:20.987Z,99.90
2019-05-16T05:52:25.892Z,99.90
2019-05-16T05:57:30.790Z,99.90
2019-05-16T06:02:39.998Z,99.90
2019-05-16T06:07:44.888Z,99.90
2019-05-16T06:12:50.442Z,99.90
2019-05-16T06:17:56.129Z,99.90
2019-05-16T06:23:02.385Z,99.90
2019-05-16T06:28:07.316Z,99.90
2019-05-16T06:33:12.282Z,99.90
2019-05-16T06:38:17.577Z,99.90
2019-05-16T06:43:22.749Z,99.90
2019-05-16T06:48:30.171Z,99.90
2019-05-16T06:53:34.577Z,99.90
2019-05-16T06:58:47.739Z,99.60
2019-05-16T07:03:47.208Z,99.90
2019-05-16T07:08:52.171Z,99.90
2019-05-16T07:13:57.149Z,97.80
2019-05-16T07:19:02.414Z,99.00
2019-05-16T07:24:08.077Z,99.10
2019-05-16T07:29:15.757Z,95.90
2019-05-16T07:34:21.070Z,96.20
2019-05-16T07:39:30.720Z,96.30
2019-05-16T07:44:35.528Z,94.70
2019-05-16T07:49:40.935Z,95.90
2019-05-16T07:54:46.247Z,95.10
2019-05-16T07:59:51.199Z,95.60
2019-05-16T08:04:56.435Z,95.70
2019-05-16T08:10:01.765Z,95.70
2019-05-16T08:15:06.956Z,95.30
2019-05-16T08:20:12.540Z,95.20
2019-05-16T08:25:20.276Z,95.10
2019-05-16T08:30:24.366Z,95.00
2019-05-16T08:35:31.665Z,94.60
2019-05-16T08:41:01.084Z,95.30
2019-05-16T08:45:43.648Z,93.40
2019-05-16T08:50:53.928Z,93.90
2019-05-16T08:55:55.456Z,94.50
2019-05-16T09:01:02.291Z,95.40
2019-05-16T09:06:06.995Z,94.40
2019-05-16T09:11:29.185Z,95.80
2019-05-16T09:16:19.149Z,95.10
2019-05-16T09:21:27.127Z,96.80
2019-05-16T09:37:19.207Z,96.70
2019-05-16T09:42:24.371Z,97.50
2019-05-16T09:47:29.279Z,96.30
2019-05-16T09:52:36.300Z,96.10
2019-05-16T09:57:42.705Z,95.50
2019-05-16T10:02:48.007Z,96.70
2019-05-16T10:07:53.346Z,97.10
2019-05-16T10:12:58.710Z,94.70
2019-05-16T10:18:03.811Z,95.00
2019-05-16T10:23:15.005Z,95.30
2019-05-16T10:28:17.426Z,95.70
2019-05-16T10:33:22.289Z,94.80
2019-05-16T10:38:28.471Z,94.90
2019-05-16T10:43:34.429Z,94.80
2019-05-16T10:48:39.905Z,95.70
2019-05-16T10:54:02.359Z,93.80
2019-05-16T10:59:34.984Z,93.90
2019-05-16T11:03:59.245Z,93.50
2019-05-16T11:09:06.485Z,94.80
2019-05-16T11:14:12.064Z,92.50
2019-05-16T11:19:23.614Z,92.90
2019-05-16T11:24:24.332Z,93.10
2019-05-16T11:29:29.702Z,92.60
2019-05-16T11:34:37.248Z,94.10
2019-05-16T11:39:41.579Z,94.60
2019-05-16T11:44:47.873Z,94.10
2019-05-16T11:49:53.230Z,93.50
2019-05-16T11:54:58.201Z,94.60
2019-05-16T12:00:03.650Z,94.70
2019-05-16T12:05:08.776Z,95.90
2019-05-16T12:10:16.385Z,97.40
2019-05-16T12:15:21.173Z,96.00
2019-05-16T12:20:27.353Z,96.60
2019-05-16T12:25:33.182Z,98.90
2019-05-16T12:30:40.546Z,98.30
2019-05-16T12:35:47.423Z,97.80
2019-05-16T12:40:52.561Z,98.10
2019-05-16T12:45:57.905Z,97.70
2019-05-16T12:51:02.898Z,99.70
2019-05-16T12:56:07.819Z,97.80
2019-05-16T13:01:16.345Z,97.30
2019-05-16T13:06:20.098Z,97.10
2019-05-16T13:11:27.039Z,97.50
2019-05-16T13:16:32.334Z,98.40
2019-05-16T13:21:38.187Z,98.90
2019-05-16T13:26:44.223Z,99.30
2019-05-16T13:31:49.268Z,99.90
2019-05-16T13:36:54.245Z,98.20
2019-05-16T13:41:59.767Z,99.80
2019-05-16T13:47:04.878Z,99.00
2019-05-16T13:52:10.185Z,99.30
2019-05-16T13:57:17.156Z,98.40
2019-05-16T20:12:17.256Z,99.90
2019-05-16T20:17:23.011Z,99.90
2019-05-16T20:22:27.992Z,99.90
2019-05-16T20:27:33.228Z,99.90
2019-05-16T20:32:39.018Z,99.90
2019-05-16T20:37:44.410Z,99.90
2019-05-16T20:42:49.976Z,99.90
2019-05-16T20:48:08.076Z,99.90
2019-05-16T20:53:02.960Z,99.90
2019-05-16T20:58:08.169Z,99.90
2019-05-16T21:03:13.453Z,99.90
2019-05-16T21:08:18.834Z,99.90
2019-05-16T21:13:24.264Z,99.90
2019-05-16T21:18:29.623Z,99.90
2019-05-16T21:23:36.468Z,99.90
2019-05-16T21:28:41.702Z,99.90
2019-05-16T21:33:47.094Z,99.90
2019-05-16T21:38:52.328Z,99.90
2019-05-16T21:43:57.217Z,99.90
2019-05-16T21:49:02.272Z,99.90
2019-05-16T21:54:07.357Z,99.90
2019-05-16T21:59:12.388Z,99.90
2019-05-16T22:04:17.392Z,99.90
2019-05-16T22:09:22.322Z,99.90
2019-05-16T22:14:32.580Z,99.90
2019-05-16T22:19:40.260Z,99.90
2019-05-16T22:24:46.136Z,99.90
2019-05-16T22:29:56.771Z,99.90
2019-05-16T22:35:01.949Z,99.90
2019-05-16T22:40:07.216Z,99.90
2019-05-16T22:45:14.381Z,99.90
2019-05-16T22:50:19.637Z,99.90
2019-05-16T22:55:26.412Z,99.90
2019-05-16T23:00:32.513Z,99.90
2019-05-16T23:05:37.934Z,99.90
2019-05-16T23:10:43.616Z,99.90
2019-05-16T23:15:48.700Z,99.90
2019-05-16T23:20:53.868Z,99.90
2019-05-16T23:25:58.951Z,99.90
2019-05-16T23:31:03.985Z,99.90
2019-05-16T23:36:09.155Z,99.90
2019-05-16T23:41:14.181Z,99.90
2019-05-16T23:46:19.419Z,99.90
2019-05-16T23:51:27.441Z,99.90
2019-05-16T23:56:32.137Z,99.90
